Time;durP1;ratioP1;P1;durP2;ratioP2;P2;SDS_P1;SDS_P2;PMS_P1;PMS_P2;Temp;Humidity;BMP_temperature;BMP_pressure;BME280_temperature;BME280_humidity;BME280_pressure;Samples;Min_cycle;Max_cycle;Signal;HPM_P1;HPM_P2
2021/01/21 00:00:32;;;;;;;27.05;15.45;;;;;;;2.78;83.59;99501.40;1648779;84;26591;-85
2021/01/21 00:02:59;;;;;;;26.05;15.48;;;;;;;2.69;83.81;99478.16;1647830;84;26251;-85
2021/01/21 00:05:25;;;;;;;27.93;16.07;;;;;;;2.81;83.67;99498.55;1650806;84;26257;-85
2021/01/21 00:07:51;;;;;;;28.12;16.37;;;;;;;2.82;83.73;99502.73;1647703;84;25816;-85
2021/01/21 00:10:18;;;;;;;30.02;17.20;;;;;;;2.76;83.76;99481.84;1650109;84;26436;-85
2021/01/21 00:12:44;;;;;;;31.85;17.57;;;;;;;2.85;83.85;99480.53;1649652;84;26641;-84
2021/01/21 00:15:11;;;;;;;34.08;20.08;;;;;;;2.85;83.85;99480.53;1650478;84;26553;-85
2021/01/21 00:17:37;;;;;;;35.58;18.85;;;;;;;2.86;83.67;99481.34;1647318;84;25844;-85
2021/01/21 00:20:08;;;;;;;31.87;20.05;;;;;;;2.84;83.76;99482.78;1649095;84;25866;-84
2021/01/21 00:22:34;;;;;;;32.08;17.95;;;;;;;2.79;83.61;99484.95;1647573;84;25599;-85
2021/01/21 00:25:01;;;;;;;32.33;17.17;;;;;;;2.77;83.68;99487.33;1650739;84;25942;-84
2021/01/21 00:27:27;;;;;;;31.85;16.55;;;;;;;2.75;83.70;99486.16;1648929;84;25903;-85
2021/01/21 00:29:53;;;;;;;32.30;17.23;;;;;;;2.73;83.57;99489.38;1650392;84;26391;-85
2021/01/21 00:32:20;;;;;;;30.12;16.30;;;;;;;2.70;83.57;99481.08;1651606;84;25852;-85
2021/01/21 00:34:46;;;;;;;33.95;19.17;;;;;;;2.67;83.42;99488.61;1654057;84;25873;-85
2021/01/21 00:37:12;;;;;;;30.23;16.75;;;;;;;2.66;83.52;99485.70;1651979;84;26526;-85
2021/01/21 00:39:38;;;;;;;34.70;18.73;;;;;;;2.59;83.47;99480.28;1652423;84;25902;-84
2021/01/21 00:42:05;;;;;;;34.23;18.77;;;;;;;2.66;83.43;99492.16;1652892;84;26251;-84
2021/01/21 00:44:32;;;;;;;36.73;20.12;;;;;;;2.65;83.48;99487.47;1651596;84;25897;-85
2021/01/21 00:46:58;;;;;;;32.48;18.17;;;;;;;2.67;83.51;99489.90;1653228;84;25793;-85
2021/01/21 00:49:24;;;;;;;34.43;19.50;;;;;;;2.62;83.42;99485.17;1655406;84;25805;-84
2021/01/21 00:54:18;;;;;;;37.77;19.30;;;;;;;;;;1756055;78;25666;-78
2021/01/21 00:56:45;;;;;;;35.38;19.25;;;;;;;2.58;83.53;99485.09;1713943;81;25763;-78
2021/01/21 00:59:12;;;;;;;38.58;19.27;;;;;;;2.54;83.52;99482.45;1708878;81;25823;-78
2021/01/21 01:01:38;;;;;;;32.58;18.50;;;;;;;2.54;83.52;99482.45;1683884;83;25912;-77
2021/01/21 01:04:06;;;;;;;36.03;19.75;;;;;;;2.56;83.50;99486.98;1681822;83;25857;-78
2021/01/21 01:06:34;;;;;;;33.15;18.85;;;;;;;2.58;83.51;99489.44;1700126;82;25819;-77
2021/01/21 01:09:01;;;;;;;35.85;19.00;;;;;;;2.63;83.17;99485.98;1684147;83;26630;-77
2021/01/21 01:11:27;;;;;;;35.48;19.95;;;;;;;2.63;83.17;99485.98;1698030;82;26516;-77
2021/01/21 01:13:53;;;;;;;34.08;19.62;;;;;;;2.59;83.30;99482.86;1699322;82;25928;-76
2021/01/21 01:16:20;;;;;;;37.85;20.20;;;;;;;2.55;83.22;99482.78;1695343;82;26049;-77
2021/01/21 01:18:54;;;;;;;36.60;19.77;;;;;;;2.52;83.16;99485.63;1663412;83;25980;-78
2021/01/21 01:21:21;;;;;;;37.73;19.32;;;;;;;2.46;83.16;99482.79;1679063;83;26014;-77
2021/01/21 01:23:47;;;;;;;35.25;20.43;;;;;;;2.41;83.15;99483.99;1710164;82;25839;-77
2021/01/21 01:26:14;;;;;;;36.03;21.20;;;;;;;2.36;83.21;99486.16;1710122;82;25906;-77
2021/01/21 01:28:43;;;;;;;33.05;19.48;;;;;;;2.18;83.19;99465.39;1728501;81;25843;-77
2021/01/21 01:31:09;;;;;;;35.33;19.80;;;;;;;2.18;83.19;99465.39;1697090;82;26365;-77
2021/01/21 01:33:35;;;;;;;32.60;19.00;;;;;;;2.27;83.24;99485.67;1648356;84;26043;-77
2021/01/21 01:36:05;;;;;;;31.70;18.60;;;;;;;2.26;83.31;99484.51;1678401;83;25862;-77
2021/01/21 01:38:31;;;;;;;33.92;18.67;;;;;;;2.18;83.31;99469.25;1674559;83;25773;-77
2021/01/21 01:41:00;;;;;;;35.92;20.62;;;;;;;2.26;83.33;99478.88;1673739;84;25979;-76
2021/01/21 01:43:26;;;;;;;34.15;20.37;;;;;;;2.27;83.31;99482.29;1681372;84;25890;-77
2021/01/21 01:45:53;;;;;;;36.17;20.57;;;;;;;2.26;83.26;99478.88;1674498;83;25807;-77
2021/01/21 01:48:20;;;;;;;35.45;21.15;;;;;;;2.23;83.31;99483.01;1674646;84;26359;-77
2021/01/21 01:50:48;;;;;;;37.55;20.70;;;;;;;2.06;83.57;99463.86;1674762;83;25821;-77
2021/01/21 01:53:16;;;;;;;33.38;19.20;;;;;;;2.06;83.57;99463.86;1673851;83;25931;-78
2021/01/21 01:55:45;;;;;;;32.40;18.80;;;;;;;2.10;83.18;99473.42;1672777;84;25880;-77
2021/01/21 01:58:23;;;;;;;32.35;18.73;;;;;;;2.06;83.22;99480.61;1608882;86;25949;-78
2021/01/21 02:00:56;;;;;;;34.38;19.70;;;;;;;2.06;83.22;99480.61;1604345;87;25943;-78
2021/01/21 02:03:23;;;;;;;35.48;19.42;;;;;;;1.99;83.30;99464.88;1553829;89;26579;-77
2021/01/21 02:05:57;;;;;;;33.67;19.98;;;;;;;1.99;83.30;99464.88;1551240;90;26735;-76
2021/01/21 02:08:25;;;;;;;32.73;18.52;;;;;;;1.99;83.56;99462.74;1583097;88;25946;-78
2021/01/21 02:10:58;;;;;;;35.03;21.70;;;;;;;1.99;83.56;99462.74;1580898;88;25927;-76
2021/01/21 02:13:51;;;;;;;33.18;19.50;;;;;;;2.12;83.53;99469.77;1578980;88;26032;-77
2021/01/21 02:16:52;;;;;;;35.95;19.92;;;;;;;2.02;83.33;99452.20;1580430;88;26644;-77
2021/01/21 02:19:40;;;;;;;;;;;;;;;2.09;83.41;99479.53;1578652;89;26685;-78
2021/01/21 02:22:27;;;;;;;37.58;20.32;;;;;;;2.05;83.52;99471.25;1575614;89;26919;-77
2021/01/21 02:25:13;;;;;;;38.02;20.65;;;;;;;2.04;83.59;99469.61;1575581;89;25871;-78
2021/01/21 02:28:06;;;;;;;37.73;22.22;;;;;;;2.06;83.62;99478.51;1576334;89;25861;-76
2021/01/21 02:30:57;;;;;;;36.83;21.10;;;;;;;1.94;83.59;99457.20;1554865;90;25794;-78
2021/01/21 02:33:48;;;;;;;39.05;22.52;;;;;;;1.94;83.59;99457.20;1574975;89;25938;-77
2021/01/21 02:36:20;;;;;;;39.85;23.22;;;;;;;2.05;83.59;99471.25;1594662;88;26403;-77
2021/01/21 02:38:49;;;;;;;44.13;23.67;;;;;;;2.10;83.64;99462.66;1574607;88;25829;-79
2021/01/21 02:41:16;;;;;;;41.63;23.52;;;;;;;1.97;83.49;99453.88;1598100;88;26885;-77
2021/01/21 02:43:42;;;;;;;46.45;24.60;;;;;;;1.97;83.49;99453.88;1673309;82;26287;-76
2021/01/21 02:46:09;;;;;;;43.40;25.10;;;;;;;2.06;83.59;99468.20;1704012;82;26423;-78
2021/01/21 02:48:37;;;;;;;34.92;22.75;;;;;;;2.04;83.55;99472.66;1706528;82;25729;-76
2021/01/21 02:51:14;;;;;;;40.23;22.60;;;;;;;2.03;83.65;99471.05;1706193;81;25904;-77
2021/01/21 02:53:42;;;;;;;38.88;22.13;;;;;;;2.01;83.62;99468.59;1640770;85;27200;-76
2021/01/21 02:56:14;;;;;;;37.45;22.27;;;;;;;2.04;83.73;99472.66;1650488;84;25841;-77
2021/01/21 02:58:45;;;;;;;39.35;22.52;;;;;;;1.92;84.07;99452.16;1654746;84;26390;-77
2021/01/21 03:01:16;;;;;;;39.80;22.37;;;;;;;1.92;84.07;99452.16;1662335;83;26851;-78
2021/01/21 03:03:47;;;;;;;37.58;22.40;;;;;;;2.05;83.62;99468.68;1677611;83;25830;-77
2021/01/21 03:06:16;;;;;;;;;;;;;;;2.08;83.72;99463.73;1679838;83;26684;-78
2021/01/21 03:08:44;;;;;;;39.08;21.73;;;;;;;2.11;83.92;99466.05;1655620;83;26618;-77
2021/01/21 03:11:13;;;;;;;39.78;23.10;;;;;;;2.15;83.99;99462.23;1678390;83;26349;-77
2021/01/21 03:13:43;;;;;;;38.33;24.25;;;;;;;2.14;83.78;99459.33;1655148;83;26151;-77
2021/01/21 03:16:09;;;;;;;37.35;23.40;;;;;;;2.03;83.87;99451.72;1678100;83;25829;-77
2021/01/21 03:18:36;;;;;;;41.00;23.07;;;;;;;2.15;83.96;99463.05;1676834;83;26749;-76
2021/01/21 03:21:04;;;;;;;41.18;22.82;;;;;;;2.16;83.92;99463.89;1663814;83;25815;-77
2021/01/21 03:23:32;;;;;;;41.37;23.55;;;;;;;2.01;83.83;99441.53;1641261;85;25840;-79
2021/01/21 03:26:02;;;;;;;41.20;23.05;;;;;;;2.01;83.83;99441.53;1639831;85;25804;-79
2021/01/21 03:28:29;;;;;;;38.83;21.82;;;;;;;2.13;83.79;99459.81;1640828;85;25753;-77
2021/01/21 03:30:55;;;;;;;38.25;23.50;;;;;;;2.14;83.68;99463.20;1663902;82;26404;-78
2021/01/21 03:33:22;;;;;;;39.27;24.45;;;;;;;2.14;83.68;99463.20;1662136;83;25980;-77
2021/01/21 03:35:50;;;;;;;44.13;25.52;;;;;;;2.15;83.63;99464.34;1664646;84;26047;-76
2021/01/21 03:38:18;;;;;;;42.03;24.07;;;;;;;2.16;83.70;99459.54;1686532;83;25652;-77
2021/01/21 03:40:49;;;;;;;42.13;25.10;;;;;;;2.17;83.56;99467.60;1706183;82;25590;-76
2021/01/21 03:43:15;;;;;;;42.90;24.37;;;;;;;2.11;83.23;99469.43;1723481;81;25877;-76
2021/01/21 03:46:00;;;;;;;40.03;24.02;;;;;;;1.99;83.33;99462.30;1720035;81;25730;-77
2021/01/21 03:48:26;;;;;;;42.03;23.40;;;;;;;2.02;83.39;99466.82;1698857;82;25881;-76
2021/01/21 03:51:06;;;;;;;39.70;23.57;;;;;;;2.00;83.37;99471.64;1631472;86;25863;-76
2021/01/21 03:53:33;;;;;;;44.27;24.18;;;;;;;1.94;83.35;99469.60;1615836;86;25891;-77
2021/01/21 03:56:01;;;;;;;39.00;22.35;;;;;;;1.94;83.35;99469.60;1634843;86;27572;-78
2021/01/21 03:58:28;;;;;;;41.73;24.18;;;;;;;1.92;83.36;99474.06;1634690;85;26710;-77
2021/01/21 04:00:56;;;;;;;37.50;23.30;;;;;;;1.92;83.32;99470.68;1650285;84;25787;-75
2021/01/21 04:03:22;;;;;;;35.52;22.13;;;;;;;1.94;83.46;99472.18;1648837;84;26317;-77
2021/01/21 04:05:56;;;;;;;38.78;23.25;;;;;;;2.00;83.54;99477.28;1660043;83;26279;-77
2021/01/21 04:08:24;;;;;;;40.85;24.55;;;;;;;2.00;83.55;99471.64;1639357;84;25865;-77
2021/01/21 04:10:52;;;;;;;45.17;24.07;;;;;;;2.02;83.53;99475.84;1666350;84;25946;-77
2021/01/21 04:13:23;;;;;;;44.25;25.50;;;;;;;2.01;83.54;99468.59;1643163;85;26528;-76
2021/01/21 04:15:50;;;;;;;39.65;23.18;;;;;;;1.97;83.29;99470.62;1650025;84;26439;-79
2021/01/21 04:18:18;;;;;;;42.25;24.77;;;;;;;1.94;83.26;99469.60;1621226;85;25844;-76
2021/01/21 04:20:56;;;;;;;40.60;25.08;;;;;;;1.90;83.13;99457.91;1615520;86;26454;-77
2021/01/21 04:23:22;;;;;;;38.25;23.38;;;;;;;1.85;82.95;99461.83;1606225;84;25858;-77
2021/01/21 04:25:48;;;;;;;41.08;24.92;;;;;;;1.82;83.22;99449.22;1646365;85;26511;-77
2021/01/21 04:28:15;;;;;;;42.67;24.60;;;;;;;1.81;82.96;99457.91;1728955;80;25735;-77
2021/01/21 04:30:42;;;;;;;40.70;24.65;;;;;;;1.79;83.02;99460.59;1725672;81;25838;-76
2021/01/21 04:33:08;;;;;;;41.60;24.15;;;;;;;1.76;82.88;99453.95;1725730;81;25758;-77
2021/01/21 04:35:35;;;;;;;38.83;23.15;;;;;;;1.66;82.82;99462.11;1726381;81;26406;-77
2021/01/21 04:38:01;;;;;;;41.88;24.40;;;;;;;1.61;82.64;99458.29;1724557;81;25939;-78
2021/01/21 04:40:29;;;;;;;47.78;25.35;;;;;;;1.61;82.64;99458.29;1725940;81;26618;-78
2021/01/21 04:42:58;;;;;;;40.00;24.15;;;;;;;1.53;82.83;99455.10;1721934;81;25825;-77
2021/01/21 04:45:24;;;;;;;43.13;22.85;;;;;;;1.41;82.97;99434.23;1724188;81;25883;-77
2021/01/21 04:47:50;;;;;;;41.75;24.30;;;;;;;1.41;82.97;99434.23;1725217;81;26258;-77
2021/01/21 04:50:26;;;;;;;45.52;25.48;;;;;;;1.51;82.84;99458.27;1723830;81;26603;-78
2021/01/21 04:52:59;;;;;;;42.05;23.92;;;;;;;1.50;82.93;99469.49;1726606;81;25866;-77
2021/01/21 04:55:34;;;;;;;46.88;25.48;;;;;;;1.28;82.66;99435.28;1680440;82;26155;-78
2021/01/21 04:58:45;;;;;;;42.17;25.00;;;;;;;1.28;82.66;99435.28;1701620;82;25935;-77
2021/01/21 05:01:12;;;;;;;40.83;23.70;;;;;;;1.36;82.96;99455.20;1688837;82;25766;-77
2021/01/21 05:03:38;;;;;;;42.17;24.67;;;;;;;1.31;82.96;99454.80;1703326;81;25834;-76
2021/01/21 05:06:16;;;;;;;36.75;21.60;;;;;;;1.33;83.13;99458.04;1688838;83;25839;-78
2021/01/21 05:08:44;;;;;;;39.73;23.57;;;;;;;1.28;82.98;99451.17;1659059;84;25645;-76
2021/01/21 05:11:12;;;;;;;42.23;24.52;;;;;;;1.15;83.07;99437.24;1656634;83;26852;-77
2021/01/21 05:13:40;;;;;;;39.00;23.62;;;;;;;1.26;83.12;99471.09;1634895;84;26396;-77
2021/01/21 05:16:25;;;;;;;43.30;24.23;;;;;;;1.24;83.09;99466.06;1635263;84;25863;-77
2021/01/21 05:19:01;;;;;;;40.52;24.40;;;;;;;1.24;83.33;99469.11;1656806;84;26577;-77
2021/01/21 05:21:46;;;;;;;42.85;24.87;;;;;;;;;;1666913;84;26113;-78
2021/01/21 05:24:14;;;;;;;37.13;23.07;;;;;;;1.23;83.30;99467.49;1657151;84;26513;-77
2021/01/21 05:26:45;;;;;;;41.40;23.95;;;;;;;1.23;83.36;99468.30;1657759;84;26053;-76
2021/01/21 05:29:17;;;;;;;37.93;22.13;;;;;;;1.25;83.42;99470.73;1656514;84;26542;-78
2021/01/21 05:31:48;;;;;;;41.45;23.40;;;;;;;1.25;83.34;99470.73;1637109;86;26210;-76
2021/01/21 05:34:18;;;;;;;38.65;25.05;;;;;;;1.26;83.29;99467.23;1660349;84;25841;-77
2021/01/21 05:36:49;;;;;;;43.55;26.25;;;;;;;1.25;83.30;99471.55;1657116;84;27135;-77
2021/01/21 05:39:17;;;;;;;42.30;24.12;;;;;;;1.25;83.30;99470.73;1657966;85;26436;-77
2021/01/21 05:42:04;;;;;;;40.67;24.18;;;;;;;1.23;83.28;99471.35;1634604;85;26145;-77
2021/01/21 05:44:36;;;;;;;40.83;23.40;;;;;;;1.20;83.21;99474.16;1660406;83;26303;-76
2021/01/21 05:47:06;;;;;;;38.38;22.82;;;;;;;1.16;83.22;99468.45;1655305;85;25782;-76
2021/01/21 05:49:34;;;;;;;41.13;23.87;;;;;;;1.16;83.25;99476.17;1665520;83;26522;-77
2021/01/21 05:52:04;;;;;;;37.47;22.73;;;;;;;1.14;83.30;99467.76;1718096;81;25732;-77
2021/01/21 05:54:31;;;;;;;42.60;23.75;;;;;;;;;;1735742;80;25781;-77
2021/01/21 05:57:01;;;;;;;36.28;22.82;;;;;;;1.21;83.37;99473.23;1756262;80;25812;-76
2021/01/21 05:59:29;;;;;;;43.92;24.52;;;;;;;1.22;83.42;99473.09;1753856;80;25803;-78
2021/01/21 06:02:11;;;;;;;40.55;25.12;;;;;;;1.21;83.30;99475.80;1765624;79;26562;-76
2021/01/21 06:04:40;;;;;;;39.75;23.87;;;;;;;1.20;83.38;99476.28;1743041;80;25606;-77
2021/01/21 06:07:10;;;;;;;41.95;25.00;;;;;;;1.20;83.39;99484.45;1771432;79;25540;-76
2021/01/21 06:09:38;;;;;;;44.75;26.42;;;;;;;1.21;83.41;99489.95;1765829;79;25632;-77
2021/01/21 06:12:06;;;;;;;40.75;23.45;;;;;;;1.18;83.26;99476.88;1753681;80;25933;-76
2021/01/21 06:14:33;;;;;;;40.20;23.30;;;;;;;1.22;83.51;99483.37;1757996;80;26424;-77
2021/01/21 06:16:59;;;;;;;38.95;24.27;;;;;;;1.24;83.47;99489.70;1766809;80;25848;-77
2021/01/21 06:19:26;;;;;;;43.33;25.55;;;;;;;1.23;83.34;99494.52;1760746;80;25887;-77
2021/01/21 06:22:07;;;;;;;37.33;23.70;;;;;;;1.17;83.36;99485.52;1755083;80;25811;-77
2021/01/21 06:24:44;;;;;;;39.00;23.20;;;;;;;1.17;83.58;99494.52;1750985;80;25756;-77
2021/01/21 06:27:11;;;;;;;39.53;22.70;;;;;;;1.19;83.65;99491.84;1750098;80;26368;-76
2021/01/21 06:29:38;;;;;;;41.42;23.90;;;;;;;1.20;83.72;99489.59;1718295;81;25937;-76
2021/01/21 06:32:08;;;;;;;39.83;23.75;;;;;;;1.20;83.82;99498.16;1751286;80;26412;-76
2021/01/21 06:34:38;;;;;;;44.38;24.05;;;;;;;1.23;83.82;99496.61;1769070;78;35138;-77
2021/01/21 06:37:18;;;;;;;39.25;24.27;;;;;;;1.23;83.80;99491.47;1782825;78;25506;-78
2021/01/21 06:40:13;;;;;;;40.83;24.20;;;;;;;1.36;83.98;99505.41;1778263;78;26399;-78
2021/01/21 06:42:57;;;;;;;39.42;24.20;;;;;;;1.36;83.98;99505.41;1777411;78;25884;-79
2021/01/21 06:45:23;;;;;;;38.90;23.47;;;;;;;1.41;83.99;99500.69;1777131;78;26396;-77
2021/01/21 06:47:50;;;;;;;36.08;23.57;;;;;;;1.40;83.87;99501.64;1781268;79;25876;-77
2021/01/21 06:50:17;;;;;;;42.48;24.80;;;;;;;1.38;83.83;99503.52;1780835;78;25657;-79
2021/01/21 06:52:45;;;;;;;39.18;24.55;;;;;;;1.40;83.92;99504.70;1767562;78;25720;-78
2021/01/21 06:55:12;;;;;;;36.73;21.97;;;;;;;1.35;83.99;99491.39;1767554;79;25718;-78
2021/01/21 06:57:42;;;;;;;38.73;24.32;;;;;;;1.41;83.85;99510.99;1758248;81;25871;-77
2021/01/21 07:00:11;;;;;;;41.83;24.00;;;;;;;1.44;83.92;99516.36;1694999;83;25638;-77
2021/01/21 07:02:50;;;;;;;38.77;24.30;;;;;;;1.47;84.09;99507.09;1708132;82;25838;-77
2021/01/21 07:05:22;;;;;;;42.48;23.83;;;;;;;1.52;83.99;99514.77;1719824;81;25792;-79
2021/01/21 07:08:01;;;;;;;40.40;26.10;;;;;;;1.55;83.96;99512.41;1765025;79;26710;-78
2021/01/21 07:10:47;;;;;;;41.60;25.17;;;;;;;1.59;84.02;99511.70;1755430;79;26675;-78
2021/01/21 07:13:18;;;;;;;41.13;25.92;;;;;;;1.62;83.92;99507.59;1742656;81;25918;-78
2021/01/21 07:15:48;;;;;;;42.85;25.37;;;;;;;1.58;83.84;99515.20;1748337;80;25839;-78
2021/01/21 07:18:24;;;;;;;39.75;24.67;;;;;;;1.58;83.84;99516.02;1750025;79;30521;-78
2021/01/21 07:21:16;;;;;;;35.43;21.70;;;;;;;1.57;83.88;99508.44;1720671;81;25885;-77
2021/01/21 07:23:46;;;;;;;41.83;23.25;;;;;;;1.56;83.85;99514.06;1716510;82;25560;-78
2021/01/21 07:26:32;;;;;;;39.78;23.32;;;;;;;1.57;83.89;99514.88;1694946;83;25621;-78
2021/01/21 07:29:17;;;;;;;39.45;24.07;;;;;;;1.59;83.91;99510.42;1734708;81;25724;-77
2021/01/21 07:31:59;;;;;;;33.65;21.48;;;;;;;1.64;83.92;99510.38;1735328;81;25686;-76
2021/01/21 07:34:39;;;;;;;35.78;23.80;;;;;;;1.65;83.85;99505.55;1729944;81;26188;-78
2021/01/21 07:37:29;;;;;;;39.33;24.10;;;;;;;1.68;83.95;99501.91;1736996;81;26303;-80
2021/01/21 07:40:08;;;;;;;38.48;22.82;;;;;;;1.73;83.98;99503.63;1657526;83;25748;-79
2021/01/21 07:42:40;;;;;;;40.03;23.10;;;;;;;1.75;84.04;99495.31;1657614;84;25826;-80
2021/01/21 07:45:14;;;;;;;49.03;27.22;;;;;;;1.80;84.13;99492.32;1730914;81;26414;-80
2021/01/21 07:47:47;;;;;;;55.38;30.60;;;;;;;1.85;84.13;99499.19;1734051;82;25919;-78
2021/01/21 07:50:30;;;;;;;54.00;31.05;;;;;;;1.89;84.08;99495.42;1734473;82;25799;-80
2021/01/21 07:52:59;;;;;;;45.70;25.97;;;;;;;1.91;83.93;99491.77;1705968;83;25550;-79
2021/01/21 07:55:35;;;;;;;37.48;24.50;;;;;;;1.94;83.97;99486.35;1735880;81;25672;-78
2021/01/21 07:58:38;;;;;;;35.63;21.80;;;;;;;1.98;84.00;99486.41;1737995;80;25899;-78
2021/01/21 08:01:10;;;;;;;36.42;23.50;;;;;;;1.96;84.10;99465.14;1654674;85;26218;-78
2021/01/21 08:03:46;;;;;;;33.75;22.35;;;;;;;1.96;84.10;99465.14;1653283;85;26551;-77
2021/01/21 08:06:18;;;;;;;36.00;24.40;;;;;;;2.06;83.74;99461.76;1654075;85;26282;-77
2021/01/21 08:08:50;;;;;;;45.08;26.60;;;;;;;2.18;84.00;99476.98;1653631;85;25998;-76
2021/01/21 08:11:23;;;;;;;37.55;24.43;;;;;;;2.18;84.00;99476.98;1655470;85;26332;-77
2021/01/21 08:13:58;;;;;;;41.13;24.43;;;;;;;2.18;83.88;99480.85;1654516;85;25803;-77
2021/01/21 08:16:25;;;;;;;39.13;25.25;;;;;;;2.12;83.88;99463.31;1654785;85;25811;-81
2021/01/21 08:19:02;;;;;;;58.25;38.13;;;;;;;2.25;84.01;99477.25;1657156;83;25856;-78
2021/01/21 08:21:30;;;;;;;56.10;40.40;;;;;;;2.29;83.93;99472.63;1654095;85;25992;-77
2021/01/21 08:24:03;;;;;;;63.83;46.30;;;;;;;2.35;84.06;99467.78;1658579;84;26313;-78
2021/01/21 08:26:31;;;;;;;69.95;45.98;;;;;;;2.39;84.00;99472.98;1659322;83;25824;-77
2021/01/21 08:28:59;;;;;;;47.90;33.28;;;;;;;2.43;83.96;99469.69;1651516;85;26577;-78
2021/01/21 08:31:44;;;;;;;45.28;31.12;;;;;;;2.47;83.82;99465.06;1653638;85;25804;-78
2021/01/21 08:34:19;;;;;;;47.27;35.65;;;;;;;2.52;83.99;99466.77;1653788;85;25923;-78
2021/01/21 08:36:45;;;;;;;40.63;27.58;;;;;;;2.57;83.84;99467.98;1658313;83;27165;-77
2021/01/21 08:39:12;;;;;;;59.98;42.10;;;;;;;2.68;83.74;99468.33;1690621;83;26391;-76
2021/01/21 08:41:41;;;;;;;54.25;39.90;;;;;;;2.74;83.77;99461.33;1688279;83;26434;-77
2021/01/21 08:44:18;;;;;;;50.63;31.35;;;;;;;2.71;83.83;99438.86;1688955;83;25739;-81
2021/01/21 08:47:04;;;;;;;65.03;41.83;;;;;;;2.99;83.71;99460.41;1689123;83;25635;-76
2021/01/21 08:49:34;;;;;;;50.05;35.45;;;;;;;2.99;83.71;99460.41;1688743;83;27162;-76
2021/01/21 08:52:07;;;;;;;45.70;32.33;;;;;;;3.07;83.72;99461.83;1689362;83;25601;-78
2021/01/21 08:54:34;;;;;;;41.42;24.70;;;;;;;3.15;83.77;99463.72;1690831;82;25990;-76
2021/01/21 08:57:20;;;;;;;38.53;24.15;;;;;;;3.26;83.65;99464.36;1718711;81;26020;-76
2021/01/21 08:59:42;;;;;;;36.13;22.00;;;;;;;3.26;83.65;99464.36;1718688;81;25839;-77
2021/01/21 09:02:09;;;;;;;41.08;25.50;;;;;;;3.35;83.50;99463.98;1685532;83;26359;-75
2021/01/21 09:04:38;;;;;;;36.33;22.70;;;;;;;3.43;83.54;99462.00;1702925;81;26402;-78
2021/01/21 09:07:07;;;;;;;34.30;21.97;;;;;;;3.54;83.58;99460.52;1703036;81;25615;-75
2021/01/21 09:09:40;;;;;;;29.90;20.20;;;;;;;3.66;83.43;99466.34;1763842;78;25562;-80
2021/01/21 09:12:19;;;;;;;30.92;20.65;;;;;;;3.81;83.54;99463.60;1727382;80;25801;-78
2021/01/21 09:15:12;;;;;;;34.88;22.00;;;;;;;3.96;83.46;99466.05;1659048;84;26492;-77
2021/01/21 09:17:41;;;;;;;32.03;21.62;;;;;;;4.11;83.45;99457.80;1706367;82;25689;-75
2021/01/21 09:20:32;;;;;;;31.02;20.37;;;;;;;4.26;83.36;99462.81;1689777;82;25875;-76
2021/01/21 09:22:54;;;;;;;29.40;16.77;;;;;;;4.38;83.21;99463.41;1753580;80;25731;-77
2021/01/21 09:25:25;;;;;;;26.15;17.23;;;;;;;4.50;82.96;99470.00;1747929;80;26343;-75
2021/01/21 09:27:57;;;;;;;26.90;18.10;;;;;;;4.62;82.84;99466.20;1733895;80;26515;-78
2021/01/21 09:30:24;;;;;;;25.90;16.23;;;;;;;4.72;82.71;99465.30;1753697;80;26646;-75
2021/01/21 09:32:50;;;;;;;25.48;15.25;;;;;;;4.78;82.37;99462.95;1769576;78;25918;-77
2021/01/21 09:35:20;;;;;;;27.65;17.50;;;;;;;4.83;81.89;99465.09;1731698;80;25765;-79
2021/01/21 09:37:50;;;;;;;32.42;18.73;;;;;;;4.91;82.00;99467.75;1722909;81;25905;-79
2021/01/21 09:40:23;;;;;;;25.15;17.55;;;;;;;4.98;81.63;99464.06;1722937;81;26785;-78
2021/01/21 09:42:54;;;;;;;27.25;16.97;;;;;;;5.01;81.57;99459.38;1729682;80;25584;-77
2021/01/21 09:45:22;;;;;;;26.12;15.93;;;;;;;5.07;81.43;99462.69;1740925;80;25721;-77
2021/01/21 09:47:51;;;;;;;23.60;16.07;;;;;;;5.11;81.07;99456.70;1739911;80;25781;-76
2021/01/21 09:50:20;;;;;;;24.98;15.35;;;;;;;5.16;80.85;99456.27;1740611;80;25810;-78
2021/01/21 09:52:46;;;;;;;28.35;17.35;;;;;;;5.17;80.41;99448.32;1740385;80;25813;-77
2021/01/21 09:55:13;;;;;;;27.20;17.57;;;;;;;5.23;80.71;99451.59;1737742;80;25696;-77
2021/01/21 09:57:40;;;;;;;24.80;17.02;;;;;;;5.27;80.73;99450.82;1711138;82;25790;-77
2021/01/21 10:00:11;;;;;;;27.00;18.00;;;;;;;5.30;80.58;99444.84;1733669;80;25792;-76
2021/01/21 10:02:41;;;;;;;26.57;16.17;;;;;;;5.33;80.51;99441.94;1733610;80;25800;-77
2021/01/21 10:05:13;;;;;;;27.30;15.63;;;;;;;5.36;80.17;99434.34;1716769;80;26025;-78
2021/01/21 10:07:39;;;;;;;25.80;16.27;;;;;;;5.39;79.89;99434.52;1739971;80;25546;-78
2021/01/21 10:10:06;;;;;;;25.90;15.80;;;;;;;5.43;80.13;99434.06;1752257;80;25597;-77
2021/01/21 10:12:33;;;;;;;23.70;14.40;;;;;;;5.47;79.71;99420.30;1748344;80;25556;-78
2021/01/21 10:15:03;;;;;;;25.43;13.72;;;;;;;5.51;79.50;99431.52;1742478;80;25746;-80
2021/01/21 10:17:31;;;;;;;27.45;14.83;;;;;;;5.55;79.11;99426.82;1743014;80;25972;-77
2021/01/21 10:19:58;;;;;;;22.35;14.13;;;;;;;5.61;79.09;99419.70;1743851;80;26018;-77
2021/01/21 10:22:24;;;;;;;22.67;12.85;;;;;;;5.67;79.14;99416.97;1722001;81;25934;-77
2021/01/21 10:24:50;;;;;;;20.45;14.10;;;;;;;5.72;79.24;99423.31;1721437;81;26289;-79
2021/01/21 10:27:17;;;;;;;25.05;14.45;;;;;;;5.81;79.07;99425.47;1724817;81;26126;-78
2021/01/21 10:29:43;;;;;;;21.45;13.32;;;;;;;5.89;78.45;99422.91;1659656;84;26643;-76
2021/01/21 10:32:10;;;;;;;22.50;14.07;;;;;;;5.92;77.41;99423.88;1681727;83;26370;-77
2021/01/21 10:34:36;;;;;;;25.70;13.78;;;;;;;5.95;77.76;99415.81;1691960;82;25901;-77
2021/01/21 10:37:04;;;;;;;21.10;13.53;;;;;;;5.97;77.76;99405.26;1664460;84;26107;-79
2021/01/21 10:39:30;;;;;;;20.17;14.07;;;;;;;5.97;77.38;99406.09;1662997;84;25849;-78
2021/01/21 10:41:58;;;;;;;24.82;15.58;;;;;;;6.02;78.07;99407.38;1665407;84;26413;-77
2021/01/21 10:44:24;;;;;;;25.97;14.05;;;;;;;6.07;78.06;99406.42;1625528;86;25994;-77
2021/01/21 10:46:51;;;;;;;22.40;14.63;;;;;;;6.12;78.21;99403.68;1650695;85;25891;-77
2021/01/21 10:49:17;;;;;;;24.55;14.25;;;;;;;6.19;78.21;99405.13;1633805;85;26133;-76
2021/01/21 10:51:47;;;;;;;23.10;13.93;;;;;;;6.24;77.92;99405.47;1656505;83;25764;-75
2021/01/21 10:54:14;;;;;;;24.92;14.87;;;;;;;6.25;77.59;99396.73;1680978;83;25750;-75
2021/01/21 10:56:40;;;;;;;21.50;12.80;;;;;;;6.27;77.67;99393.95;1688490;83;25952;-76
2021/01/21 10:59:06;;;;;;;23.27;15.98;;;;;;;6.30;77.13;99394.47;1709557;82;25851;-76
2021/01/21 11:01:35;;;;;;;28.40;14.87;;;;;;;6.33;77.17;99391.55;1710835;82;25854;-76
2021/01/21 11:04:02;;;;;;;26.55;14.98;;;;;;;6.37;77.22;99388.94;1709897;83;25915;-78
2021/01/21 11:06:28;;;;;;;20.80;14.03;;;;;;;6.40;77.08;99386.02;1709889;82;25796;-76
2021/01/21 11:08:54;;;;;;;23.27;14.38;;;;;;;6.47;77.02;99385.39;1709873;82;26560;-77
2021/01/21 11:11:20;;;;;;;22.35;14.28;;;;;;;6.50;76.37;99378.57;1709731;82;26001;-76
2021/01/21 11:13:47;;;;;;;23.20;14.15;;;;;;;6.52;76.60;99376.14;1707451;82;26552;-79
2021/01/21 11:16:14;;;;;;;25.23;14.13;;;;;;;6.54;76.13;99379.85;1707363;83;25806;-79
2021/01/21 11:18:40;;;;;;;25.10;15.63;;;;;;;6.52;76.25;99374.84;1685737;83;28044;-77
2021/01/21 11:21:06;;;;;;;25.35;15.80;;;;;;;6.52;76.24;99372.70;1709544;82;26137;-79
2021/01/21 11:23:33;;;;;;;25.50;15.53;;;;;;;6.56;76.21;99368.33;1709564;82;25980;-77
2021/01/21 11:25:59;;;;;;;23.07;15.90;;;;;;;6.60;76.22;99374.83;1708755;82;26455;-77
2021/01/21 11:28:25;;;;;;;27.62;17.17;;;;;;;6.60;76.09;99367.51;1703963;82;26545;-77
2021/01/21 11:30:51;;;;;;;26.35;16.62;;;;;;;6.62;76.11;99359.88;1682018;83;26507;-78
2021/01/21 11:33:18;;;;;;;24.37;16.95;;;;;;;6.69;76.09;99360.05;1681212;83;25907;-78
2021/01/21 11:35:46;;;;;;;26.37;17.50;;;;;;;6.75;76.19;99353.39;1682479;83;26500;-78
2021/01/21 11:38:14;;;;;;;28.25;18.77;;;;;;;6.77;75.75;99351.44;1689563;83;26432;-76
2021/01/21 11:40:41;;;;;;;24.50;16.70;;;;;;;6.79;75.59;99364.59;1684485;83;25678;-77
2021/01/21 11:43:08;;;;;;;23.90;15.08;;;;;;;6.85;75.91;99376.09;1689215;82;25755;-76
2021/01/21 11:45:35;;;;;;;22.17;14.85;;;;;;;6.88;75.89;99373.97;1710457;82;25872;-77